EXS9TL EGCC-LEPA
Flight info
| Callsign | EXS9TL |
|---|---|
| Flight time | 2h 9m |
| Altitude | 37000 |
| Route | LISTO P18 TELBA L151 KIDLI UN859 SOPIL DCT BALAN DCT EVPOK DCT NARAK DCT GAI DCT LOMRA DCT ROCAN DCT IBRAP DCT LUKEV DCT LORES |
| Aircraft | B738/M-SDE2E3FGHIRWXY/LB1 |
Departure
| Time | 2026-05-04 09:51 |
|---|---|
| Airport | Manchester Airport (EGCC) |
Arrival
| Time | 2026-05-04 12:00 |
|---|---|
| Airport | Palma de Mallorca Airport (LEPA) |
| Time | Latitude | Longitude | Altitude | Speed | Heading |
|---|---|---|---|---|---|
| 2026-05-04 08:27 | 53.36407 | -2.27689 | 254 ft | 0 kts | 45° |
| 2026-05-04 09:37 | 53.36378 | -2.27724 | 254 ft | 4 kts | 13° |
| 2026-05-04 09:37 | 53.36353 | -2.27724 | 254 ft | 4 kts | 336° |
| 2026-05-04 09:38 | 53.36334 | -2.27698 | 254 ft | 4 kts | 292° |
| 2026-05-04 09:38 | 53.36332 | -2.27689 | 254 ft | 1 kts | 285° |
| 2026-05-04 09:42 | 53.36248 | -2.28095 | 254 ft | 10 kts | 211° |
| 2026-05-04 09:43 | 53.36187 | -2.28154 | 254 ft | 10 kts | 194° |
| 2026-05-04 09:43 | 53.36129 | -2.28106 | 254 ft | 10 kts | 135° |
| 2026-05-04 09:43 | 53.36079 | -2.28030 | 254 ft | 10 kts | 138° |
| 2026-05-04 09:43 | 53.36028 | -2.27955 | 254 ft | 11 kts | 139° |
| 2026-05-04 09:44 | 53.35966 | -2.27871 | 254 ft | 12 kts | 149° |
| 2026-05-04 09:44 | 53.35887 | -2.27851 | 254 ft | 12 kts | 185° |
| 2026-05-04 09:44 | 53.35786 | -2.27868 | 248 ft | 17 kts | 186° |
| 2026-05-04 09:46 | 53.35116 | -2.28540 | 227 ft | 15 kts | 231° |
| 2026-05-04 09:46 | 53.35056 | -2.28665 | 229 ft | 13 kts | 230° |
| 2026-05-04 09:46 | 53.34994 | -2.28751 | 226 ft | 8 kts | 193° |
| 2026-05-04 09:47 | 53.34966 | -2.28738 | 227 ft | 2 kts | 147° |
| 2026-05-04 09:47 | 53.34961 | -2.28732 | 227 ft | 0 kts | 144° |
| 2026-05-04 09:49 | 53.34869 | -2.28542 | 229 ft | 4 kts | 51° |
| 2026-05-04 09:49 | 53.34980 | -2.28311 | 231 ft | 59 kts | 51° |
| 2026-05-04 09:49 | 53.35374 | -2.27495 | 242 ft | 122 kts | 51° |
| 2026-05-04 09:51 | 53.36035 | -2.18160 | 3365 ft | 190 kts | 146° |
| 2026-05-04 09:51 | 53.34813 | -2.17024 | 3696 ft | 214 kts | 163° |
| 2026-05-04 09:51 | 53.33267 | -2.16852 | 3950 ft | 232 kts | 183° |
| 2026-05-04 09:51 | 53.31645 | -2.17092 | 4131 ft | 236 kts | 185° |
| 2026-05-04 09:52 | 53.29996 | -2.17378 | 4289 ft | 240 kts | 185° |
| 2026-05-04 09:52 | 53.28279 | -2.17669 | 4443 ft | 259 kts | 185° |
| 2026-05-04 09:52 | 53.26442 | -2.17980 | 5108 ft | 270 kts | 185° |
| 2026-05-04 09:52 | 53.24554 | -2.18287 | 5943 ft | 273 kts | 185° |
| 2026-05-04 09:53 | 53.22662 | -2.18589 | 6820 ft | 275 kts | 185° |
| 2026-05-04 09:53 | 53.20752 | -2.18892 | 7692 ft | 276 kts | 186° |
| 2026-05-04 09:53 | 53.18831 | -2.19194 | 8500 ft | 279 kts | 186° |
| 2026-05-04 09:53 | 53.16878 | -2.19499 | 9323 ft | 283 kts | 186° |
| 2026-05-04 09:54 | 53.14907 | -2.19806 | 10127 ft | 286 kts | 186° |
| 2026-05-04 09:54 | 53.12883 | -2.20121 | 10571 ft | 303 kts | 186° |
| 2026-05-04 09:54 | 53.10701 | -2.20463 | 10755 ft | 327 kts | 186° |
| 2026-05-04 09:54 | 53.08360 | -2.20828 | 10967 ft | 348 kts | 186° |
| 2026-05-04 09:55 | 53.05913 | -2.21208 | 11496 ft | 357 kts | 186° |
| 2026-05-04 09:55 | 53.03416 | -2.21595 | 12045 ft | 363 kts | 186° |
| 2026-05-04 09:55 | 53.00901 | -2.21984 | 12489 ft | 363 kts | 186° |
| 2026-05-04 09:55 | 52.98382 | -2.22377 | 12918 ft | 365 kts | 186° |
| 2026-05-04 09:56 | 52.95885 | -2.22769 | 13364 ft | 366 kts | 186° |
| 2026-05-04 09:56 | 52.93340 | -2.23168 | 13845 ft | 368 kts | 186° |
| 2026-05-04 09:56 | 52.90783 | -2.23569 | 14291 ft | 370 kts | 186° |
| 2026-05-04 09:56 | 52.88223 | -2.23968 | 14750 ft | 370 kts | 186° |
| 2026-05-04 09:57 | 52.85658 | -2.24417 | 15223 ft | 371 kts | 189° |
| 2026-05-04 09:57 | 52.83117 | -2.25294 | 15755 ft | 376 kts | 194° |
| 2026-05-04 09:57 | 52.80565 | -2.26338 | 16396 ft | 379 kts | 194° |
| 2026-05-04 09:57 | 52.77998 | -2.27394 | 17045 ft | 382 kts | 194° |
| 2026-05-04 09:58 | 52.75397 | -2.28433 | 17728 ft | 384 kts | 194° |
| 2026-05-04 09:58 | 52.72785 | -2.29449 | 18381 ft | 387 kts | 194° |
| 2026-05-04 09:58 | 52.70157 | -2.30458 | 18963 ft | 389 kts | 193° |
| 2026-05-04 10:00 | 52.52972 | -2.17169 | 22609 ft | 413 kts | 147° |
| 2026-05-04 10:00 | 52.50578 | -2.14535 | 23111 ft | 415 kts | 147° |
| 2026-05-04 10:02 | 52.33391 | -1.95830 | 25841 ft | 433 kts | 148° |
| 2026-05-04 10:04 | 52.15433 | -1.76563 | 28184 ft | 449 kts | 149° |
| 2026-05-04 10:04 | 52.12826 | -1.73788 | 28491 ft | 451 kts | 149° |
| 2026-05-04 10:04 | 52.10188 | -1.70985 | 28787 ft | 453 kts | 149° |
| 2026-05-04 10:04 | 52.07550 | -1.68191 | 29094 ft | 454 kts | 149° |
| 2026-05-04 10:05 | 52.04893 | -1.65395 | 29387 ft | 456 kts | 149° |
| 2026-05-04 10:05 | 52.02227 | -1.62605 | 29670 ft | 455 kts | 150° |
| 2026-05-04 10:05 | 51.99582 | -1.59814 | 29957 ft | 451 kts | 149° |
| 2026-05-04 10:05 | 51.96969 | -1.57035 | 30211 ft | 447 kts | 149° |
| 2026-05-04 10:06 | 51.94380 | -1.54277 | 30412 ft | 444 kts | 149° |
| 2026-05-04 10:06 | 51.91800 | -1.51536 | 30557 ft | 443 kts | 149° |
| 2026-05-04 10:06 | 51.89218 | -1.48804 | 30674 ft | 443 kts | 149° |
| 2026-05-04 10:08 | 51.73227 | -1.33998 | 31058 ft | 431 kts | 166° |
| 2026-05-04 10:08 | 51.70359 | -1.32652 | 31041 ft | 428 kts | 166° |
| 2026-05-04 10:08 | 51.64664 | -1.29846 | 31062 ft | 432 kts | 165° |
| 2026-05-04 10:09 | 51.61789 | -1.28387 | 31206 ft | 436 kts | 165° |
| 2026-05-04 10:09 | 51.58889 | -1.26909 | 31475 ft | 436 kts | 165° |
| 2026-05-04 10:09 | 51.56001 | -1.25440 | 31780 ft | 436 kts | 165° |
| 2026-05-04 10:09 | 51.53113 | -1.23951 | 32100 ft | 436 kts | 162° |
| 2026-05-04 10:10 | 51.50307 | -1.22055 | 32338 ft | 440 kts | 155° |
| 2026-05-04 10:10 | 51.47614 | -1.19686 | 32553 ft | 442 kts | 153° |
| 2026-05-04 10:10 | 51.44925 | -1.17244 | 32802 ft | 443 kts | 153° |
| 2026-05-04 10:10 | 51.42794 | -1.15298 | 33023 ft | 444 kts | 153° |
| 2026-05-04 10:11 | 51.42356 | -1.14898 | 33071 ft | 444 kts | 153° |
| 2026-05-04 10:11 | 51.39666 | -1.12450 | 33317 ft | 445 kts | 153° |
| 2026-05-04 10:11 | 51.32863 | -1.06318 | 33911 ft | 447 kts | 153° |
| 2026-05-04 10:12 | 51.27538 | -1.01563 | 34555 ft | 442 kts | 153° |
| 2026-05-04 10:12 | 51.24848 | -0.99174 | 34819 ft | 441 kts | 153° |
| 2026-05-04 10:12 | 51.22160 | -0.96793 | 34963 ft | 443 kts | 153° |
| 2026-05-04 10:12 | 51.19462 | -0.94405 | 35119 ft | 444 kts | 153° |
| 2026-05-04 10:13 | 51.16766 | -0.92021 | 35421 ft | 441 kts | 153° |
| 2026-05-04 10:13 | 51.14085 | -0.89651 | 35693 ft | 440 kts | 153° |
| 2026-05-04 10:13 | 51.11406 | -0.87286 | 35851 ft | 442 kts | 153° |
| 2026-05-04 10:13 | 51.08713 | -0.84913 | 35991 ft | 443 kts | 153° |
| 2026-05-04 10:14 | 51.06013 | -0.82536 | 36193 ft | 443 kts | 153° |
| 2026-05-04 10:14 | 51.03317 | -0.80165 | 36405 ft | 442 kts | 153° |
| 2026-05-04 10:16 | 50.84409 | -0.63625 | 37006 ft | 443 kts | 153° |
| 2026-05-04 10:16 | 50.81715 | -0.61280 | 37010 ft | 441 kts | 153° |
| 2026-05-04 10:16 | 50.76360 | -0.56631 | 37012 ft | 438 kts | 153° |
| 2026-05-04 10:17 | 50.71031 | -0.52016 | 37017 ft | 436 kts | 153° |
| 2026-05-04 10:19 | 50.49697 | -0.33662 | 37016 ft | 440 kts | 153° |
| 2026-05-04 10:19 | 50.44314 | -0.29061 | 37015 ft | 442 kts | 153° |
| 2026-05-04 10:20 | 50.38907 | -0.24450 | 37021 ft | 443 kts | 154° |
| 2026-05-04 10:20 | 50.33481 | -0.19836 | 37014 ft | 444 kts | 154° |
| 2026-05-04 10:21 | 50.28042 | -0.15222 | 37011 ft | 445 kts | 154° |
| 2026-05-04 10:21 | 50.22601 | -0.10618 | 37010 ft | 445 kts | 154° |
| 2026-05-04 10:22 | 50.14450 | -0.03742 | 37011 ft | 443 kts | 154° |
| 2026-05-04 10:23 | 50.08939 | 0.00478 | 36994 ft | 439 kts | 163° |
| 2026-05-04 10:25 | 49.85470 | 0.09616 | 37005 ft | 434 kts | 168° |
| 2026-05-04 10:25 | 49.82536 | 0.10763 | 37009 ft | 433 kts | 168° |
| 2026-05-04 10:26 | 49.72751 | 0.14573 | 37008 ft | 432 kts | 168° |
| 2026-05-04 10:26 | 49.64453 | 0.17830 | 37019 ft | 432 kts | 167° |
| 2026-05-04 10:27 | 49.58641 | 0.20198 | 37023 ft | 432 kts | 167° |
| 2026-05-04 10:27 | 49.52832 | 0.22560 | 37025 ft | 432 kts | 167° |
| 2026-05-04 10:28 | 49.47020 | 0.24907 | 37019 ft | 432 kts | 167° |
| 2026-05-04 10:28 | 49.41201 | 0.27248 | 37022 ft | 433 kts | 167° |
| 2026-05-04 10:29 | 49.35372 | 0.29588 | 37025 ft | 433 kts | 167° |
| 2026-05-04 10:29 | 49.29531 | 0.31936 | 37014 ft | 434 kts | 167° |
| 2026-05-04 10:30 | 49.23713 | 0.34377 | 37006 ft | 434 kts | 167° |
| 2026-05-04 10:30 | 49.17879 | 0.36848 | 36981 ft | 434 kts | 167° |
| 2026-05-04 10:31 | 49.12064 | 0.39294 | 36978 ft | 434 kts | 167° |
| 2026-05-04 10:32 | 48.91686 | 0.47787 | 36970 ft | 434 kts | 167° |
| 2026-05-04 10:33 | 48.85857 | 0.50205 | 36973 ft | 434 kts | 167° |
| 2026-05-04 10:33 | 48.80033 | 0.52614 | 36967 ft | 434 kts | 167° |
| 2026-05-04 10:34 | 48.74202 | 0.54949 | 36972 ft | 433 kts | 168° |
| 2026-05-04 10:34 | 48.68364 | 0.57212 | 36964 ft | 433 kts | 168° |
| 2026-05-04 10:35 | 48.63512 | 0.59096 | 36963 ft | 433 kts | 168° |
| 2026-05-04 10:35 | 48.57672 | 0.61371 | 36961 ft | 433 kts | 168° |
| 2026-05-04 10:36 | 48.51843 | 0.63638 | 36956 ft | 432 kts | 168° |
| 2026-05-04 10:36 | 48.46031 | 0.65982 | 36961 ft | 432 kts | 167° |
| 2026-05-04 10:37 | 48.40225 | 0.68358 | 36961 ft | 432 kts | 167° |
| 2026-05-04 10:37 | 48.34430 | 0.70712 | 36957 ft | 432 kts | 167° |
| 2026-05-04 10:39 | 48.14143 | 0.78799 | 36950 ft | 431 kts | 168° |
| 2026-05-04 10:40 | 48.08344 | 0.81073 | 36952 ft | 430 kts | 168° |
| 2026-05-04 10:40 | 48.02552 | 0.83343 | 36949 ft | 430 kts | 168° |
| 2026-05-04 10:41 | 47.96768 | 0.85606 | 36938 ft | 429 kts | 168° |
| 2026-05-04 10:41 | 47.90995 | 0.87859 | 36948 ft | 428 kts | 168° |
| 2026-05-04 10:42 | 47.85229 | 0.90104 | 36951 ft | 428 kts | 168° |
| 2026-05-04 10:42 | 47.79468 | 0.92339 | 36955 ft | 428 kts | 168° |
| 2026-05-04 10:43 | 47.73706 | 0.94566 | 36953 ft | 428 kts | 168° |
| 2026-05-04 10:45 | 47.50743 | 1.03400 | 36951 ft | 427 kts | 168° |
| 2026-05-04 10:45 | 47.44994 | 1.05595 | 36951 ft | 426 kts | 169° |
| 2026-05-04 10:46 | 47.39146 | 1.06437 | 36959 ft | 421 kts | 183° |
| 2026-05-04 10:46 | 47.33278 | 1.06226 | 36956 ft | 422 kts | 183° |
| 2026-05-04 10:47 | 47.27402 | 1.06055 | 36949 ft | 423 kts | 183° |
| 2026-05-04 10:47 | 47.21518 | 1.05918 | 36950 ft | 423 kts | 182° |
| 2026-05-04 10:49 | 46.97933 | 1.05333 | 36949 ft | 424 kts | 184° |
| 2026-05-04 10:50 | 46.92042 | 1.05059 | 36949 ft | 424 kts | 184° |
| 2026-05-04 10:52 | 46.68436 | 1.04022 | 36939 ft | 426 kts | 184° |
| 2026-05-04 10:52 | 46.62515 | 1.03768 | 36949 ft | 425 kts | 184° |
| 2026-05-04 10:54 | 46.42062 | 1.06437 | 36945 ft | 425 kts | 169° |
| 2026-05-04 10:54 | 46.39184 | 1.07425 | 36948 ft | 425 kts | 169° |
| 2026-05-04 10:56 | 46.16185 | 1.15103 | 36946 ft | 426 kts | 170° |
| 2026-05-04 10:57 | 46.10402 | 1.17016 | 36970 ft | 427 kts | 170° |
| 2026-05-04 10:57 | 46.04599 | 1.18931 | 36926 ft | 428 kts | 170° |
| 2026-05-04 10:58 | 45.98782 | 1.20848 | 36965 ft | 429 kts | 171° |
| 2026-05-04 10:58 | 45.92969 | 1.22759 | 36955 ft | 429 kts | 171° |
| 2026-05-04 10:59 | 45.87153 | 1.24667 | 36965 ft | 428 kts | 171° |
| 2026-05-04 10:59 | 45.81343 | 1.26569 | 36968 ft | 428 kts | 171° |
| 2026-05-04 11:00 | 45.75540 | 1.28464 | 36957 ft | 427 kts | 171° |
| 2026-05-04 11:02 | 45.52423 | 1.35976 | 36951 ft | 425 kts | 171° |
| 2026-05-04 11:05 | 45.09371 | 1.49800 | 36963 ft | 422 kts | 171° |
| 2026-05-04 11:06 | 45.03649 | 1.51621 | 36969 ft | 422 kts | 171° |
| 2026-05-04 11:06 | 44.97911 | 1.53444 | 36925 ft | 423 kts | 172° |
| 2026-05-04 11:10 | 44.60740 | 1.65166 | 36945 ft | 423 kts | 172° |
| 2026-05-04 11:12 | 44.37846 | 1.72309 | 36950 ft | 420 kts | 172° |
| 2026-05-04 11:12 | 44.32172 | 1.74071 | 36960 ft | 420 kts | 172° |
| 2026-05-04 11:13 | 44.26447 | 1.75677 | 36959 ft | 419 kts | 175° |
| 2026-05-04 11:13 | 44.20691 | 1.76908 | 36952 ft | 419 kts | 176° |
| 2026-05-04 11:14 | 44.14926 | 1.78124 | 36965 ft | 419 kts | 176° |
| 2026-05-04 11:16 | 43.91764 | 1.82892 | 36964 ft | 419 kts | 180° |
| 2026-05-04 11:16 | 43.85948 | 1.83407 | 36964 ft | 419 kts | 181° |
| 2026-05-04 11:17 | 43.80148 | 1.83907 | 36952 ft | 419 kts | 181° |
| 2026-05-04 11:19 | 43.56887 | 1.86139 | 36955 ft | 418 kts | 181° |
| 2026-05-04 11:19 | 43.47140 | 1.87077 | 36977 ft | 418 kts | 181° |
| 2026-05-04 11:20 | 43.33985 | 1.88340 | 36961 ft | 417 kts | 181° |
| 2026-05-04 11:20 | 43.20750 | 1.89616 | 36954 ft | 416 kts | 181° |
| 2026-05-04 11:22 | 42.97700 | 1.91818 | 36945 ft | 413 kts | 182° |
| 2026-05-04 11:23 | 42.91961 | 1.92364 | 36948 ft | 413 kts | 182° |
| 2026-05-04 11:25 | 42.71851 | 1.94270 | 36944 ft | 414 kts | 182° |
| 2026-05-04 11:25 | 42.66106 | 1.95049 | 36926 ft | 419 kts | 173° |
| 2026-05-04 11:27 | 42.27998 | 2.08812 | 36954 ft | 422 kts | 173° |
| 2026-05-04 11:28 | 42.05166 | 2.16881 | 36927 ft | 425 kts | 173° |
| 2026-05-04 11:28 | 41.95806 | 2.20176 | 36786 ft | 426 kts | 173° |
| 2026-05-04 11:29 | 41.92943 | 2.21179 | 36495 ft | 424 kts | 173° |
| 2026-05-04 11:29 | 41.90097 | 2.22178 | 36249 ft | 421 kts | 173° |
| 2026-05-04 11:29 | 41.87268 | 2.23171 | 35999 ft | 420 kts | 173° |
| 2026-05-04 11:29 | 41.84470 | 2.24149 | 35763 ft | 421 kts | 173° |
| 2026-05-04 11:31 | 41.64549 | 2.31102 | 34054 ft | 423 kts | 174° |
| 2026-05-04 11:33 | 41.44905 | 2.37933 | 32297 ft | 408 kts | 174° |
| 2026-05-04 11:33 | 41.42164 | 2.38881 | 32039 ft | 406 kts | 174° |
| 2026-05-04 11:33 | 41.39446 | 2.39821 | 31699 ft | 401 kts | 174° |
| 2026-05-04 11:34 | 41.36762 | 2.40751 | 31317 ft | 396 kts | 174° |
| 2026-05-04 11:34 | 41.34104 | 2.41669 | 30891 ft | 393 kts | 174° |
| 2026-05-04 11:34 | 41.31470 | 2.42578 | 30461 ft | 389 kts | 174° |
| 2026-05-04 11:34 | 41.28859 | 2.43477 | 30057 ft | 386 kts | 173° |
| 2026-05-04 11:35 | 41.26273 | 2.44366 | 29595 ft | 383 kts | 173° |
| 2026-05-04 11:35 | 41.23699 | 2.45252 | 29157 ft | 379 kts | 173° |
| 2026-05-04 11:35 | 41.21160 | 2.46125 | 28731 ft | 375 kts | 173° |
| 2026-05-04 11:35 | 41.18647 | 2.46988 | 28322 ft | 371 kts | 173° |
| 2026-05-04 11:36 | 41.16162 | 2.47841 | 27891 ft | 368 kts | 173° |
| 2026-05-04 11:36 | 41.13691 | 2.48688 | 27492 ft | 364 kts | 173° |
| 2026-05-04 11:36 | 41.11246 | 2.49525 | 27079 ft | 362 kts | 173° |
| 2026-05-04 11:36 | 41.08819 | 2.50356 | 26669 ft | 359 kts | 173° |
| 2026-05-04 11:37 | 41.06404 | 2.51181 | 26282 ft | 358 kts | 173° |
| 2026-05-04 11:37 | 41.04032 | 2.51991 | 25896 ft | 356 kts | 173° |
| 2026-05-04 11:37 | 41.01627 | 2.52810 | 25509 ft | 359 kts | 173° |
| 2026-05-04 11:37 | 40.99165 | 2.53642 | 25124 ft | 370 kts | 173° |
| 2026-05-04 11:38 | 40.96656 | 2.54492 | 24718 ft | 373 kts | 173° |
| 2026-05-04 11:38 | 40.94144 | 2.55350 | 24283 ft | 372 kts | 173° |
| 2026-05-04 11:38 | 40.91649 | 2.56204 | 23877 ft | 369 kts | 173° |
| 2026-05-04 11:38 | 40.89166 | 2.57053 | 23452 ft | 367 kts | 173° |
| 2026-05-04 11:39 | 40.86693 | 2.57896 | 22963 ft | 365 kts | 172° |
| 2026-05-04 11:39 | 40.84242 | 2.58730 | 22552 ft | 362 kts | 172° |
| 2026-05-04 11:40 | 40.69954 | 2.63574 | 20215 ft | 346 kts | 172° |
| 2026-05-04 11:41 | 40.67627 | 2.64360 | 19832 ft | 344 kts | 172° |
| 2026-05-04 11:41 | 40.65316 | 2.65140 | 19455 ft | 342 kts | 171° |
| 2026-05-04 11:41 | 40.63012 | 2.65918 | 19078 ft | 341 kts | 171° |
| 2026-05-04 11:41 | 40.60716 | 2.66692 | 18704 ft | 340 kts | 171° |
| 2026-05-04 11:42 | 40.58425 | 2.67464 | 18310 ft | 340 kts | 171° |
| 2026-05-04 11:42 | 40.56136 | 2.68235 | 17881 ft | 340 kts | 171° |
| 2026-05-04 11:42 | 40.53849 | 2.69004 | 17478 ft | 339 kts | 170° |
| 2026-05-04 11:42 | 40.51570 | 2.69771 | 17098 ft | 338 kts | 170° |
| 2026-05-04 11:43 | 40.49351 | 2.70651 | 16701 ft | 341 kts | 161° |
| 2026-05-04 11:43 | 40.47232 | 2.72083 | 16323 ft | 343 kts | 155° |
| 2026-05-04 11:43 | 40.45160 | 2.73633 | 15921 ft | 343 kts | 154° |
| 2026-05-04 11:43 | 40.43096 | 2.75191 | 15531 ft | 341 kts | 154° |
| 2026-05-04 11:44 | 40.41038 | 2.76729 | 15164 ft | 338 kts | 155° |
| 2026-05-04 11:44 | 40.39005 | 2.78229 | 14728 ft | 333 kts | 155° |
| 2026-05-04 11:44 | 40.36988 | 2.79701 | 14195 ft | 331 kts | 155° |
| 2026-05-04 11:44 | 40.34978 | 2.81159 | 13682 ft | 329 kts | 155° |
| 2026-05-04 11:45 | 40.32982 | 2.82602 | 13191 ft | 326 kts | 155° |
| 2026-05-04 11:45 | 40.31006 | 2.84027 | 12686 ft | 323 kts | 155° |
| 2026-05-04 11:45 | 40.29049 | 2.85437 | 12252 ft | 320 kts | 155° |
| 2026-05-04 11:45 | 40.27114 | 2.86831 | 12028 ft | 313 kts | 155° |
| 2026-05-04 11:46 | 40.25233 | 2.88185 | 11876 ft | 304 kts | 155° |
| 2026-05-04 11:46 | 40.23404 | 2.89502 | 11743 ft | 296 kts | 155° |
| 2026-05-04 11:46 | 40.21623 | 2.90781 | 11547 ft | 289 kts | 155° |
| 2026-05-04 11:46 | 40.19868 | 2.92038 | 11255 ft | 287 kts | 157° |
| 2026-05-04 11:47 | 40.18044 | 2.92946 | 11016 ft | 282 kts | 167° |
| 2026-05-04 11:47 | 40.16127 | 2.93592 | 10774 ft | 281 kts | 169° |
| 2026-05-04 11:47 | 40.14222 | 2.94184 | 10541 ft | 281 kts | 169° |
| 2026-05-04 11:47 | 40.12346 | 2.94770 | 10319 ft | 279 kts | 169° |
| 2026-05-04 11:48 | 40.10477 | 2.95369 | 10152 ft | 274 kts | 169° |
| 2026-05-04 11:48 | 40.08658 | 2.95964 | 10051 ft | 265 kts | 169° |
| 2026-05-04 11:48 | 40.06889 | 2.96551 | 9868 ft | 261 kts | 168° |
| 2026-05-04 11:48 | 40.05132 | 2.97138 | 9586 ft | 260 kts | 168° |
| 2026-05-04 11:49 | 40.03387 | 2.97725 | 9323 ft | 258 kts | 168° |
| 2026-05-04 11:49 | 40.01652 | 2.98311 | 9055 ft | 257 kts | 168° |
| 2026-05-04 11:49 | 39.99926 | 2.98895 | 8789 ft | 256 kts | 168° |
| 2026-05-04 11:49 | 39.98204 | 2.99479 | 8503 ft | 255 kts | 169° |
| 2026-05-04 11:50 | 39.96491 | 3.00060 | 8251 ft | 254 kts | 169° |
| 2026-05-04 11:50 | 39.94786 | 3.00639 | 7992 ft | 252 kts | 169° |
| 2026-05-04 11:50 | 39.93085 | 3.01216 | 7733 ft | 252 kts | 169° |
| 2026-05-04 11:50 | 39.91388 | 3.01793 | 7467 ft | 252 kts | 169° |
| 2026-05-04 11:51 | 39.89695 | 3.02367 | 7214 ft | 251 kts | 169° |
| 2026-05-04 11:51 | 39.88009 | 3.02940 | 6957 ft | 250 kts | 169° |
| 2026-05-04 11:51 | 39.86330 | 3.03509 | 6697 ft | 250 kts | 169° |
| 2026-05-04 11:51 | 39.84648 | 3.04079 | 6444 ft | 249 kts | 168° |
| 2026-05-04 11:52 | 39.82969 | 3.04649 | 6172 ft | 249 kts | 168° |
| 2026-05-04 11:52 | 39.81300 | 3.05213 | 5909 ft | 247 kts | 168° |
| 2026-05-04 11:52 | 39.79643 | 3.05776 | 5658 ft | 245 kts | 169° |
| 2026-05-04 11:52 | 39.78018 | 3.06326 | 5402 ft | 244 kts | 169° |
| 2026-05-04 11:53 | 39.76381 | 3.06880 | 5159 ft | 242 kts | 169° |
| 2026-05-04 11:53 | 39.74755 | 3.07430 | 4908 ft | 240 kts | 169° |
| 2026-05-04 11:53 | 39.73163 | 3.07965 | 4814 ft | 232 kts | 171° |
| 2026-05-04 11:53 | 39.71612 | 3.07948 | 4672 ft | 220 kts | 201° |
| 2026-05-04 11:55 | 39.65600 | 2.97512 | 3715 ft | 200 kts | 238° |
| 2026-05-04 11:55 | 39.64893 | 2.95997 | 3478 ft | 193 kts | 237° |
| 2026-05-04 11:56 | 39.64203 | 2.94533 | 3247 ft | 188 kts | 238° |
| 2026-05-04 11:56 | 39.63526 | 2.93100 | 2995 ft | 184 kts | 238° |
| 2026-05-04 11:56 | 39.62865 | 2.91702 | 2759 ft | 180 kts | 237° |
| 2026-05-04 11:56 | 39.62218 | 2.90331 | 2514 ft | 175 kts | 238° |
| 2026-05-04 11:57 | 39.61588 | 2.88996 | 2277 ft | 171 kts | 238° |
| 2026-05-04 11:57 | 39.60978 | 2.87701 | 2066 ft | 166 kts | 236° |
| 2026-05-04 11:57 | 39.60378 | 2.86431 | 1840 ft | 166 kts | 237° |
| 2026-05-04 11:57 | 39.59780 | 2.85164 | 1632 ft | 161 kts | 238° |
| 2026-05-04 11:58 | 39.59217 | 2.83968 | 1427 ft | 148 kts | 237° |
| 2026-05-04 11:58 | 39.58686 | 2.82843 | 1216 ft | 145 kts | 238° |
| 2026-05-04 11:58 | 39.58164 | 2.81735 | 1041 ft | 144 kts | 238° |
| 2026-05-04 11:58 | 39.57653 | 2.80651 | 852 ft | 141 kts | 237° |
| 2026-05-04 11:59 | 39.57154 | 2.79589 | 676 ft | 136 kts | 237° |
| 2026-05-04 11:59 | 39.56663 | 2.78547 | 490 ft | 138 kts | 237° |
| 2026-05-04 11:59 | 39.56148 | 2.77454 | 324 ft | 145 kts | 237° |
| 2026-05-04 11:59 | 39.55619 | 2.76331 | 98 ft | 145 kts | 237° |
| 2026-05-04 12:00 | 39.55118 | 2.75278 | 37 ft | 121 kts | 239° |
| 2026-05-04 12:00 | 39.54788 | 2.74570 | 37 ft | 67 kts | 238° |
| 2026-05-04 12:00 | 39.54618 | 2.74210 | 37 ft | 24 kts | 238° |
| 2026-05-04 12:00 | 39.54561 | 2.74028 | 37 ft | 20 kts | 258° |
| 2026-05-04 12:01 | 39.54551 | 2.73874 | 37 ft | 11 kts | 269° |
| 2026-05-04 12:01 | 39.54552 | 2.73784 | 37 ft | 10 kts | 275° |
| 2026-05-04 12:02 | 39.54817 | 2.74123 | 37 ft | 11 kts | 359° |
| 2026-05-04 12:03 | 39.54882 | 2.74082 | 36 ft | 11 kts | 329° |
| 2026-05-04 12:03 | 39.54966 | 2.74016 | 37 ft | 15 kts | 328° |
| 2026-05-04 12:03 | 39.55056 | 2.73945 | 37 ft | 15 kts | 329° |
| 2026-05-04 12:03 | 39.55136 | 2.73882 | 37 ft | 11 kts | 329° |
| 2026-05-04 12:04 | 39.55174 | 2.73814 | 37 ft | 10 kts | 259° |
| 2026-05-04 12:04 | 39.55178 | 2.73732 | 37 ft | 10 kts | 292° |
| 2026-05-04 12:04 | 39.55183 | 2.73648 | 35 ft | 9 kts | 271° |
| 2026-05-04 12:04 | 39.55167 | 2.73571 | 37 ft | 9 kts | 239° |
| 2026-05-04 12:05 | 39.55135 | 2.73503 | 37 ft | 9 kts | 238° |
| 2026-05-04 12:05 | 39.55119 | 2.73467 | 35 ft | 8 kts | 239° |
| 2026-05-04 12:05 | 39.55090 | 2.73406 | 37 ft | 8 kts | 238° |
| 2026-05-04 12:05 | 39.55063 | 2.73345 | 37 ft | 7 kts | 240° |
| 2026-05-04 12:06 | 39.55028 | 2.73327 | 37 ft | 6 kts | 187° |
| 2026-05-04 12:06 | 39.54995 | 2.73324 | 37 ft | 2 kts | 184° |
| 2026-05-04 12:06 | 39.54991 | 2.73323 | 37 ft | 0 kts | 184° |